Time;durP1;ratioP1;P1;durP2;ratioP2;P2;SDS_P1;SDS_P2;PMS_P1;PMS_P2;Temp;Humidity;BMP_temperature;BMP_pressure;BME280_temperature;BME280_humidity;BME280_pressure;Samples;Min_cycle;Max_cycle;Signal;HPM_P1;HPM_P2
2023/03/25 00:00:57;;;;;;;5.30;1.90;;;8.40;95.20;;;;;;5078387;28;20027;-67
2023/03/25 00:03:28;;;;;;;6.43;1.50;;;8.50;94.50;;;;;;5083319;28;20027;-67
2023/03/25 00:05:55;;;;;;;5.05;1.70;;;8.70;93.90;;;;;;5074538;28;20111;-66
2023/03/25 00:08:25;;;;;;;6.15;1.58;;;8.80;93.70;;;;;;5081404;28;20035;-66
2023/03/25 00:10:52;;;;;;;5.80;1.45;;;8.80;93.80;;;;;;5084201;28;20016;-67
2023/03/25 00:13:18;;;;;;;6.15;2.08;;;8.80;94.00;;;;;;5094998;28;20378;-67
2023/03/25 00:15:46;;;;;;;11.40;2.50;;;8.60;95.40;;;;;;5116362;28;20027;-67
2023/03/25 00:18:13;;;;;;;4.18;1.35;;;8.10;96.10;;;;;;5100504;28;20055;-68
2023/03/25 00:20:39;;;;;;;4.47;1.50;;;7.30;97.70;;;;;;5071456;28;20021;-69
2023/03/25 00:23:09;;;;;;;5.20;1.60;;;6.70;93.10;;;;;;5072455;28;20558;-68
2023/03/25 00:25:35;;;;;;;3.28;1.30;;;6.40;90.90;;;;;;5084225;28;20020;-68
2023/03/25 00:28:00;;;;;;;4.50;1.50;;;6.20;88.00;;;;;;5072726;28;20085;-68
2023/03/25 00:30:26;;;;;;;4.32;1.45;;;6.10;87.60;;;;;;5073830;28;20081;-68
2023/03/25 00:32:51;;;;;;;3.60;1.25;;;6.00;85.30;;;;;;5086562;28;20020;-68
2023/03/25 00:35:18;;;;;;;4.03;1.20;;;6.00;88.30;;;;;;5081941;28;20321;-68
2023/03/25 00:37:46;;;;;;;3.38;1.30;;;6.00;88.30;;;;;;5080047;28;20036;-67
2023/03/25 00:40:13;;;;;;;5.03;1.40;;;6.00;91.20;;;;;;5072433;28;20061;-67
2023/03/25 00:42:43;;;;;;;4.13;1.42;;;6.00;90.90;;;;;;5083240;28;20521;-67
2023/03/25 00:45:10;;;;;;;4.55;1.10;;;5.90;91.20;;;;;;5087721;28;20021;-67
2023/03/25 00:47:36;;;;;;;1.92;0.90;;;5.80;90.40;;;;;;5085744;28;20035;-67
2023/03/25 00:50:02;;;;;;;2.58;1.20;;;5.80;91.10;;;;;;5088214;28;20040;-67
2023/03/25 00:52:28;;;;;;;2.67;1.00;;;5.80;91.00;;;;;;5087858;28;20130;-67
2023/03/25 00:54:56;;;;;;;3.05;1.20;;;5.70;92.10;;;;;;5076537;28;20024;-67
2023/03/25 00:57:22;;;;;;;2.20;1.00;;;5.70;89.20;;;;;;5073027;28;20095;-67
2023/03/25 00:59:47;;;;;;;4.03;1.08;;;5.70;88.10;;;;;;5088888;28;20064;-67
2023/03/25 01:02:15;;;;;;;3.60;1.10;;;5.60;87.50;;;;;;5080823;28;20142;-68
2023/03/25 01:04:40;;;;;;;3.47;1.00;;;5.60;86.60;;;;;;5078083;28;20059;-67
2023/03/25 01:07:09;;;;;;;5.05;1.30;;;5.50;86.30;;;;;;5082219;28;20436;-66
2023/03/25 01:09:35;;;;;;;4.10;1.70;;;5.50;85.20;;;;;;5075536;28;20024;-66
2023/03/25 01:12:00;;;;;;;5.88;1.23;;;5.60;87.00;;;;;;5073011;28;20094;-66
2023/03/25 01:14:26;;;;;;;5.13;1.30;;;5.60;87.30;;;;;;5078425;28;20417;-66
2023/03/25 01:16:52;;;;;;;3.22;1.25;;;5.50;85.90;;;;;;5085905;28;20364;-66
2023/03/25 01:19:18;;;;;;;3.67;1.23;;;5.50;84.20;;;;;;5093108;28;20035;-66
2023/03/25 01:21:44;;;;;;;4.05;1.30;;;5.60;84.00;;;;;;5083896;28;20024;-67
2023/03/25 01:24:12;;;;;;;3.40;1.10;;;5.60;84.10;;;;;;5076941;28;20025;-68
2023/03/25 01:26:40;;;;;;;3.60;1.00;;;5.70;84.50;;;;;;5075837;28;20029;-67
2023/03/25 01:29:05;;;;;;;2.28;1.10;;;5.70;86.30;;;;;;5077986;28;20032;-67
2023/03/25 01:31:31;;;;;;;3.13;1.00;;;5.70;85.30;;;;;;5087126;28;20100;-67
2023/03/25 01:33:57;;;;;;;4.75;1.30;;;5.80;85.40;;;;;;5081869;28;20047;-68
2023/03/25 01:36:24;;;;;;;4.13;1.30;;;5.80;84.60;;;;;;5092099;28;20103;-67
2023/03/25 01:38:50;;;;;;;3.95;1.63;;;5.90;86.60;;;;;;5087774;28;20032;-67
2023/03/25 01:41:16;;;;;;;5.15;1.50;;;6.00;86.60;;;;;;5079149;28;20032;-67
2023/03/25 01:43:59;;;;;;;3.90;1.13;;;6.10;87.40;;;;;;5081593;28;20027;-68
2023/03/25 01:46:25;;;;;;;3.80;1.20;;;6.10;87.70;;;;;;5080504;28;20035;-68
2023/03/25 01:48:51;;;;;;;5.43;1.40;;;6.10;88.30;;;;;;5085777;28;20031;-68
2023/03/25 01:51:21;;;;;;;3.63;1.15;;;6.00;87.60;;;;;;5081810;28;20025;-68
2023/03/25 01:53:47;;;;;;;6.45;1.33;;;6.00;87.00;;;;;;5079142;28;20021;-68
2023/03/25 01:56:17;;;;;;;5.75;1.30;;;5.90;84.30;;;;;;5078112;28;20029;-68
2023/03/25 01:58:43;;;;;;;7.53;1.90;;;5.80;84.40;;;;;;5090709;28;20131;-69
2023/03/25 02:01:12;;;;;;;4.03;1.23;;;5.80;82.30;;;;;;5094296;28;20475;-68
2023/03/25 02:03:45;;;;;;;2.45;1.00;;;5.70;82.50;;;;;;5081550;28;20368;-68
2023/03/25 02:06:23;;;;;;;5.10;1.10;;;5.60;82.40;;;;;;5079836;28;20032;-68
2023/03/25 02:08:50;;;;;;;5.00;1.48;;;5.60;89.70;;;;;;5104042;28;20028;-68
2023/03/25 02:11:16;;;;;;;4.60;1.42;;;5.60;97.20;;;;;;5119699;28;20374;-68
2023/03/25 02:13:42;;;;;;;5.43;1.20;;;5.50;97.70;;;;;;5076611;28;20048;-68
2023/03/25 02:16:25;;;;;;;6.18;1.20;;;5.50;96.90;;;;;;5078286;28;20306;-68
2023/03/25 02:19:19;;;;;;;4.80;1.63;;;5.40;94.40;;;;;;5079982;28;20070;-68
2023/03/25 02:22:02;;;;;;;7.43;1.30;;;5.30;95.30;;;;;;5089308;28;20036;-67
2023/03/25 02:25:00;;;;;;;7.43;1.45;;;5.20;93.70;;;;;;5086736;28;20025;-67
2023/03/25 02:27:45;;;;;;;5.60;1.40;;;5.10;93.50;;;;;;5082893;28;20374;-67
2023/03/25 02:30:35;;;;;;;4.70;1.30;;;5.10;93.50;;;;;;5092512;28;20363;-67
2023/03/25 02:33:25;;;;;;;5.10;1.20;;;5.20;94.00;;;;;;5089554;28;20493;-67
2023/03/25 02:36:32;;;;;;;3.92;1.10;;;5.10;92.00;;;;;;5091122;28;20036;-67
2023/03/25 02:39:30;;;;;;;4.30;1.13;;;5.20;92.40;;;;;;5079978;28;20033;-67
2023/03/25 02:42:22;;;;;;;1.45;0.82;;;5.20;93.60;;;;;;5090613;28;20028;-67
2023/03/25 02:45:00;;;;;;;1.88;0.90;;;5.40;92.90;;;;;;5080047;28;20028;-67
2023/03/25 02:47:32;;;;;;;5.07;1.20;;;5.30;92.40;;;;;;5092576;28;20024;-66
2023/03/25 02:50:04;;;;;;;2.13;0.88;;;5.30;91.50;;;;;;5086688;28;20082;-66
2023/03/25 02:52:38;;;;;;;4.05;1.00;;;5.40;91.60;;;;;;5078025;28;20029;-66
2023/03/25 02:55:09;;;;;;;5.00;1.60;;;5.40;90.20;;;;;;5079856;28;20032;-68
2023/03/25 02:57:38;;;;;;;5.85;1.30;;;5.30;89.20;;;;;;5078414;28;20040;-68
2023/03/25 03:00:14;;;;;;;6.15;1.17;;;5.30;88.50;;;;;;5080579;28;20028;-68
2023/03/25 03:02:58;;;;;;;3.83;1.40;;;5.30;86.50;;;;;;5087454;28;20028;-68
2023/03/25 03:05:34;;;;;;;4.22;1.38;;;5.10;87.30;;;;;;5074270;28;20082;-69
2023/03/25 03:08:27;;;;;;;6.57;1.45;;;4.90;85.30;;;;;;5077693;28;20025;-68
2023/03/25 03:11:30;;;;;;;3.70;1.40;;;4.80;83.30;;;;;;5086896;28;20485;-69
2023/03/25 03:14:14;;;;;;;3.05;1.20;;;4.70;81.60;;;;;;5064893;28;20048;-68
2023/03/25 03:16:48;;;;;;;;;;;4.70;83.70;;;;;;5092865;28;20024;-68
2023/03/25 03:19:45;;;;;;;2.45;1.17;;;4.60;82.60;;;;;;5078258;28;20366;-68
2023/03/25 03:22:40;;;;;;;2.78;1.20;;;4.60;84.50;;;;;;5077855;28;20033;-67
2023/03/25 03:25:33;;;;;;;3.80;1.10;;;4.60;84.50;;;;;;5084852;28;20029;-68
2023/03/25 03:28:13;;;;;;;2.80;1.15;;;4.60;84.60;;;;;;5082265;28;20017;-68
2023/03/25 03:30:47;;;;;;;4.35;1.13;;;4.70;85.60;;;;;;5086778;28;20032;-67
2023/03/25 03:33:35;;;;;;;5.38;1.25;;;4.90;89.30;;;;;;5076827;28;20067;-67
2023/03/25 03:36:09;;;;;;;4.68;1.20;;;5.00;88.90;;;;;;5076615;28;20037;-67
2023/03/25 03:38:40;;;;;;;3.22;1.17;;;5.00;90.30;;;;;;5078142;28;20024;-67
2023/03/25 03:41:09;;;;;;;5.25;1.42;;;5.00;89.00;;;;;;5083516;28;20422;-67
2023/03/25 03:43:55;;;;;;;3.70;1.30;;;5.10;89.70;;;;;;5078144;28;20035;-67
2023/03/25 03:46:27;;;;;;;7.18;1.50;;;5.10;89.70;;;;;;5076939;28;20024;-67
2023/03/25 03:48:57;;;;;;;2.60;1.23;;;5.20;90.20;;;;;;5076754;28;20033;-67
2023/03/25 03:51:37;;;;;;;5.28;1.15;;;5.20;89.50;;;;;;5077220;28;20032;-66
2023/03/25 03:54:05;;;;;;;6.20;1.30;;;5.30;90.50;;;;;;5076094;28;20028;-67
2023/03/25 03:56:35;;;;;;;5.72;1.52;;;5.30;91.20;;;;;;5088267;28;20041;-66
2023/03/25 03:59:09;;;;;;;4.80;1.27;;;5.40;92.10;;;;;;5082164;28;20421;-66
2023/03/25 04:01:44;;;;;;;;;;;5.50;92.10;;;;;;5076188;28;20047;-67
2023/03/25 04:04:19;;;;;;;4.93;1.60;;;5.50;92.80;;;;;;5080788;28;19909;-66
2023/03/25 04:06:55;;;;;;;7.75;1.70;;;5.60;94.00;;;;;;5082107;28;20027;-66
2023/03/25 04:09:53;;;;;;;6.78;1.65;;;5.60;94.00;;;;;;5084598;28;20023;-65
2023/03/25 04:12:26;;;;;;;5.35;1.20;;;5.70;95.80;;;;;;5075147;28;20035;-65
2023/03/25 04:14:55;;;;;;;5.30;1.38;;;5.60;94.70;;;;;;5078790;28;20029;-66
2023/03/25 04:17:21;;;;;;;7.40;1.30;;;5.60;95.00;;;;;;5089428;28;20309;-67
2023/03/25 04:19:47;;;;;;;6.43;1.52;;;5.60;96.40;;;;;;5076320;28;20364;-67
2023/03/25 04:22:16;;;;;;;4.35;1.35;;;5.70;96.00;;;;;;5083175;28;20027;-67
2023/03/25 04:24:42;;;;;;;6.00;1.42;;;5.60;95.70;;;;;;5076742;28;20479;-67
2023/03/25 04:27:12;;;;;;;7.13;1.65;;;5.60;95.60;;;;;;5075173;28;20034;-66
2023/03/25 04:29:39;;;;;;;6.50;1.50;;;5.60;96.00;;;;;;5077378;28;20437;-66
2023/03/25 04:32:05;;;;;;;6.35;1.40;;;5.60;97.00;;;;;;5095236;28;20024;-66
2023/03/25 04:34:31;;;;;;;8.88;1.90;;;5.70;96.80;;;;;;5096039;28;20016;-66
2023/03/25 04:36:57;;;;;;;6.03;1.40;;;5.70;97.30;;;;;;5076921;28;20360;-66
2023/03/25 04:39:23;;;;;;;3.22;1.20;;;5.80;97.90;;;;;;5080637;28;20024;-66
2023/03/25 04:41:50;;;;;;;5.28;1.58;;;5.90;98.00;;;;;;5077861;28;20036;-66
2023/03/25 04:44:16;;;;;;;5.20;1.20;;;5.80;98.00;;;;;;5075240;28;20021;-66
2023/03/25 04:46:42;;;;;;;4.45;1.63;;;5.90;98.00;;;;;;5077066;28;20107;-66
2023/03/25 04:49:17;;;;;;;7.65;1.40;;;5.90;98.00;;;;;;5078449;28;20121;-66
2023/03/25 04:51:43;;;;;;;5.25;1.30;;;5.90;98.00;;;;;;5087131;28;20035;-66
2023/03/25 04:54:09;;;;;;;7.72;1.60;;;5.80;98.00;;;;;;5088855;28;20316;-66
2023/03/25 04:56:35;;;;;;;10.00;2.35;;;5.80;98.00;;;;;;5084203;28;20070;-65
2023/03/25 04:59:01;;;;;;;6.28;1.58;;;5.70;97.80;;;;;;5087411;28;20456;-66
2023/03/25 05:01:31;;;;;;;5.47;1.40;;;5.70;98.00;;;;;;5076664;28;20356;-66
2023/03/25 05:04:03;;;;;;;6.72;1.88;;;5.70;98.00;;;;;;5076239;28;20378;-67
2023/03/25 05:06:32;;;;;;;3.78;1.17;;;5.70;98.00;;;;;;5083078;28;20059;-66
2023/03/25 05:09:00;;;;;;;8.40;2.00;;;5.70;98.00;;;;;;5085816;28;20040;-66
2023/03/25 05:11:29;;;;;;;5.15;1.38;;;5.90;98.00;;;;;;5086671;28;20020;-66
2023/03/25 05:13:55;;;;;;;4.13;1.38;;;5.90;98.00;;;;;;5081658;28;20033;-66
2023/03/25 05:16:21;;;;;;;5.72;1.77;;;5.80;98.00;;;;;;5074805;28;20483;-66
2023/03/25 05:18:46;;;;;;;6.35;1.67;;;5.80;98.00;;;;;;5076617;28;20078;-66
2023/03/25 05:21:12;;;;;;;5.18;1.70;;;5.90;98.00;;;;;;5073770;28;20108;-67
2023/03/25 05:23:38;;;;;;;4.05;1.20;;;5.90;98.00;;;;;;5081669;28;20063;-66
2023/03/25 05:26:05;;;;;;;4.68;1.48;;;6.00;98.00;;;;;;5087428;28;20465;-67
2023/03/25 05:28:30;;;;;;;5.00;1.40;;;5.90;98.00;;;;;;5082242;28;20024;-66
2023/03/25 05:30:56;;;;;;;5.80;1.55;;;5.90;98.00;;;;;;5076367;28;20118;-66
2023/03/25 05:33:22;;;;;;;5.63;1.40;;;6.00;98.00;;;;;;5077642;28;20546;-66
2023/03/25 05:35:51;;;;;;;7.75;1.60;;;6.00;98.00;;;;;;5082628;28;20060;-66
2023/03/25 05:38:19;;;;;;;7.60;1.40;;;6.10;97.80;;;;;;5077688;28;20375;-66
2023/03/25 05:40:46;;;;;;;5.80;1.98;;;6.10;97.60;;;;;;5078937;28;20028;-66
2023/03/25 05:43:13;;;;;;;7.63;1.45;;;6.10;98.00;;;;;;5087260;28;20091;-66
2023/03/25 05:45:40;;;;;;;6.18;1.40;;;6.10;97.70;;;;;;5078736;28;20028;-66
2023/03/25 05:48:05;;;;;;;4.93;1.48;;;6.10;98.00;;;;;;5081950;28;20019;-66
2023/03/25 05:50:31;;;;;;;5.25;1.35;;;6.10;97.60;;;;;;5088476;28;20020;-66
2023/03/25 05:52:58;;;;;;;8.57;2.35;;;6.10;97.80;;;;;;5084747;28;20023;-66
2023/03/25 05:55:25;;;;;;;6.47;1.67;;;6.00;97.90;;;;;;5081885;28;20039;-66
2023/03/25 05:57:50;;;;;;;4.30;1.55;;;5.90;98.00;;;;;;5083562;28;20111;-66
2023/03/25 06:00:18;;;;;;;9.07;1.60;;;5.80;98.00;;;;;;5081745;28;21616;-66
2023/03/25 06:02:44;;;;;;;8.77;1.80;;;5.90;98.00;;;;;;5079626;28;20016;-66
2023/03/25 06:05:12;;;;;;;6.63;1.42;;;5.90;98.00;;;;;;5085222;28;20043;-66
2023/03/25 06:07:41;;;;;;;7.15;1.88;;;5.90;98.00;;;;;;5094117;28;20024;-66
2023/03/25 06:10:11;;;;;;;8.25;1.50;;;5.90;98.00;;;;;;5088097;28;20355;-66
2023/03/25 06:12:40;;;;;;;5.88;1.40;;;5.90;98.00;;;;;;5095419;28;20016;-66
2023/03/25 06:15:08;;;;;;;7.07;1.40;;;6.00;98.00;;;;;;5099198;28;20029;-66
2023/03/25 06:17:37;;;;;;;6.85;1.70;;;6.10;98.00;;;;;;5095098;28;20054;-66
2023/03/25 06:20:09;;;;;;;6.60;1.73;;;6.10;98.00;;;;;;5086294;28;20036;-66
2023/03/25 06:22:39;;;;;;;7.00;2.78;;;6.00;98.00;;;;;;5089410;28;20024;-66
2023/03/25 06:25:06;;;;;;;6.85;1.75;;;5.90;98.00;;;;;;5084962;28;20117;-64
2023/03/25 06:27:33;;;;;;;5.22;1.23;;;5.90;98.00;;;;;;5093698;28;20024;-66
2023/03/25 06:30:02;;;;;;;4.47;1.95;;;5.90;98.00;;;;;;5099290;28;20028;-66
2023/03/25 06:32:29;;;;;;;4.90;1.70;;;6.00;98.00;;;;;;5097365;28;20035;-66
2023/03/25 06:34:55;;;;;;;3.80;1.33;;;6.00;98.00;;;;;;5081302;28;20024;-65
2023/03/25 06:37:20;;;;;;;8.93;2.05;;;6.10;98.00;;;;;;5099736;28;20482;-66
2023/03/25 06:39:48;;;;;;;6.15;1.40;;;6.20;98.00;;;;;;5085465;28;20077;-65
2023/03/25 06:42:14;;;;;;;5.57;1.92;;;6.20;98.00;;;;;;5089389;28;20437;-66
2023/03/25 06:44:40;;;;;;;6.88;1.38;;;6.40;98.00;;;;;;5092215;28;20024;-66
2023/03/25 06:47:05;;;;;;;4.40;1.73;;;6.40;98.00;;;;;;5090516;28;20158;-66
2023/03/25 06:49:31;;;;;;;6.93;1.50;;;6.50;98.00;;;;;;5088448;28;20024;-65
2023/03/25 06:51:57;;;;;;;4.40;1.20;;;6.50;98.00;;;;;;5077956;28;20025;-66
2023/03/25 06:54:25;;;;;;;4.95;1.33;;;6.60;97.40;;;;;;5084224;28;20029;-65
2023/03/25 06:56:51;;;;;;;4.75;1.25;;;6.70;97.30;;;;;;5100382;28;20049;-65
2023/03/25 06:59:16;;;;;;;3.50;1.00;;;6.70;97.10;;;;;;5099670;28;20050;-65
2023/03/25 07:01:45;;;;;;;6.03;1.30;;;6.60;97.30;;;;;;5096152;28;20028;-64
2023/03/25 07:04:10;;;;;;;4.57;1.35;;;6.60;97.30;;;;;;5092360;28;20035;-64
2023/03/25 07:06:36;;;;;;;3.90;1.10;;;6.50;97.60;;;;;;5092324;28;20039;-64
2023/03/25 07:09:02;;;;;;;3.53;1.20;;;6.50;97.60;;;;;;5096203;28;20032;-65
2023/03/25 07:11:29;;;;;;;2.83;0.88;;;6.50;97.50;;;;;;5094427;28;20464;-66
2023/03/25 07:13:58;;;;;;;5.10;1.10;;;6.60;97.40;;;;;;5098444;28;20140;-66
2023/03/25 07:16:24;;;;;;;4.65;1.00;;;6.60;97.20;;;;;;5118468;28;20297;-67
2023/03/25 07:18:50;;;;;;;3.15;1.13;;;6.70;97.30;;;;;;5100620;28;20024;-65
2023/03/25 07:21:16;;;;;;;2.15;0.90;;;6.80;97.10;;;;;;5095235;28;20110;-65
2023/03/25 07:23:42;;;;;;;3.47;1.25;;;6.80;96.90;;;;;;5079938;28;20036;-66
2023/03/25 07:26:08;;;;;;;2.40;1.00;;;6.90;96.90;;;;;;5089884;28;20047;-66
2023/03/25 07:28:36;;;;;;;3.13;0.93;;;7.00;96.80;;;;;;5078407;28;20020;-66
2023/03/25 07:31:05;;;;;;;2.55;0.90;;;7.10;96.50;;;;;;5089333;28;20073;-66
2023/03/25 07:33:31;;;;;;;1.80;0.80;;;7.30;96.40;;;;;;5080527;28;20070;-66
2023/03/25 07:35:56;;;;;;;1.63;0.80;;;7.30;95.60;;;;;;5088937;28;20024;-66
2023/03/25 07:38:22;;;;;;;1.42;0.70;;;7.30;95.70;;;;;;5094234;28;20101;-65
2023/03/25 07:40:47;;;;;;;2.83;0.80;;;7.50;95.40;;;;;;5092609;28;20020;-65
2023/03/25 07:43:13;;;;;;;1.80;0.73;;;7.60;95.20;;;;;;5102657;28;20031;-66
2023/03/25 07:45:39;;;;;;;1.90;0.85;;;7.70;94.90;;;;;;5117981;28;20024;-65
2023/03/25 07:48:05;;;;;;;1.30;0.80;;;7.60;94.80;;;;;;5096125;28;20027;-66
2023/03/25 07:50:30;;;;;;;3.50;1.55;;;7.50;95.40;;;;;;5097449;28;20024;-66
2023/03/25 07:52:56;;;;;;;2.30;1.00;;;7.50;95.80;;;;;;5086791;28;20471;-66
2023/03/25 07:55:22;;;;;;;4.20;0.90;;;7.60;95.50;;;;;;5077401;28;20029;-65
2023/03/25 07:57:47;;;;;;;2.70;0.80;;;7.90;94.60;;;;;;5075446;28;20298;-66
2023/03/25 08:00:13;;;;;;;2.95;0.90;;;8.20;93.80;;;;;;5084469;28;20051;-65
2023/03/25 08:02:39;;;;;;;3.60;1.00;;;8.20;93.40;;;;;;5079233;28;20107;-66
2023/03/25 08:05:05;;;;;;;5.22;1.15;;;8.30;92.60;;;;;;5076790;28;20427;-66
2023/03/25 08:07:32;;;;;;;1.80;0.90;;;8.30;93.90;;;;;;5083734;28;20306;-65
2023/03/25 08:09:57;;;;;;;4.65;0.90;;;8.20;94.00;;;;;;5080279;28;20028;-65
2023/03/25 08:12:23;;;;;;;2.50;0.90;;;8.10;94.40;;;;;;5076808;28;20029;-65
2023/03/25 08:14:49;;;;;;;3.40;0.90;;;8.20;94.00;;;;;;5092441;28;20020;-65
2023/03/25 08:17:14;;;;;;;2.90;1.00;;;8.30;93.50;;;;;;5091985;28;20546;-65
2023/03/25 08:19:40;;;;;;;3.33;1.10;;;8.30;94.30;;;;;;5076641;28;20025;-66
2023/03/25 08:22:05;;;;;;;4.00;0.95;;;8.30;93.50;;;;;;5086382;28;20298;-66
2023/03/25 08:24:31;;;;;;;3.72;1.00;;;8.20;93.30;;;;;;5079136;28;20528;-66
2023/03/25 08:26:59;;;;;;;3.25;1.00;;;8.20;93.20;;;;;;5091718;28;20028;-66
2023/03/25 08:29:26;;;;;;;4.15;1.00;;;8.20;94.20;;;;;;5094807;28;20081;-66
2023/03/25 08:31:52;;;;;;;2.88;1.10;;;8.10;93.60;;;;;;5092293;28;20024;-65
2023/03/25 08:34:19;;;;;;;4.53;1.00;;;8.10;94.20;;;;;;5085969;28;20032;-66
2023/03/25 08:36:45;;;;;;;3.20;1.20;;;8.20;94.20;;;;;;5081968;28;20617;-66
2023/03/25 08:39:11;;;;;;;5.75;1.20;;;8.20;94.60;;;;;;5086879;28;20029;-66
2023/03/25 08:41:38;;;;;;;2.40;1.02;;;8.20;94.10;;;;;;5086765;28;20042;-65
2023/03/25 08:44:04;;;;;;;2.75;1.13;;;8.10;94.90;;;;;;5083244;28;20028;-66
2023/03/25 08:46:30;;;;;;;2.42;0.80;;;8.30;94.60;;;;;;5090369;28;20035;-66
2023/03/25 08:48:56;;;;;;;3.72;0.90;;;8.50;93.20;;;;;;5076301;28;20032;-66
2023/03/25 08:51:21;;;;;;;2.08;1.00;;;8.60;92.70;;;;;;5077099;28;20427;-66
2023/03/25 08:53:47;;;;;;;4.28;1.00;;;8.40;92.30;;;;;;5091054;28;20028;-66
2023/03/25 08:56:13;;;;;;;3.42;0.85;;;8.40;92.40;;;;;;5087138;28;20035;-66
2023/03/25 08:58:38;;;;;;;2.60;0.90;;;8.40;92.40;;;;;;5079512;28;20052;-65
2023/03/25 09:01:05;;;;;;;2.35;0.88;;;8.30;92.30;;;;;;5081973;28;20069;-66
2023/03/25 09:03:31;;;;;;;2.88;0.80;;;8.80;91.50;;;;;;5091330;28;20020;-66
2023/03/25 09:05:57;;;;;;;2.35;0.70;;;9.70;88.80;;;;;;5081356;28;20027;-66
2023/03/25 09:08:23;;;;;;;2.50;1.00;;;9.80;87.10;;;;;;5077686;28;20025;-65
2023/03/25 09:10:49;;;;;;;3.97;0.98;;;9.30;88.80;;;;;;5089939;28;20426;-66
2023/03/25 09:13:15;;;;;;;1.65;0.60;;;8.90;89.80;;;;;;5075001;28;20028;-66
2023/03/25 09:15:42;;;;;;;2.45;0.77;;;8.80;91.00;;;;;;5075892;28;20024;-66
2023/03/25 09:18:08;;;;;;;2.47;0.75;;;8.80;91.10;;;;;;5091078;28;20028;-66
2023/03/25 09:20:34;;;;;;;3.03;0.80;;;8.70;91.50;;;;;;5082220;28;20029;-66
2023/03/25 09:23:00;;;;;;;1.70;0.70;;;8.60;91.90;;;;;;5076877;28;20312;-66
2023/03/25 09:25:25;;;;;;;2.85;0.90;;;8.40;92.00;;;;;;5092943;28;20036;-66
2023/03/25 09:27:54;;;;;;;1.48;0.80;;;8.50;92.50;;;;;;5089796;28;20104;-66
2023/03/25 09:30:19;;;;;;;1.75;0.80;;;8.40;92.70;;;;;;5087966;28;20024;-66
2023/03/25 09:32:45;;;;;;;3.20;0.90;;;8.40;93.40;;;;;;5091042;28;20097;-66
2023/03/25 09:35:10;;;;;;;1.90;0.75;;;8.40;92.70;;;;;;5093046;28;20024;-66
2023/03/25 09:37:36;;;;;;;2.13;0.77;;;8.60;93.50;;;;;;5092604;28;20103;-66
2023/03/25 09:40:04;;;;;;;2.35;0.82;;;9.60;91.70;;;;;;5084928;28;20041;-66
2023/03/25 09:42:48;;;;;;;1.42;0.70;;;10.00;88.20;;;;;;5078992;28;20107;-65
2023/03/25 09:45:33;;;;;;;1.65;0.70;;;9.60;89.20;;;;;;5080301;28;20051;-66
2023/03/25 09:48:19;;;;;;;1.15;0.60;;;9.40;90.00;;;;;;5096511;28;20044;-66
2023/03/25 09:50:45;;;;;;;1.52;0.70;;;9.70;90.00;;;;;;5092372;28;20024;-66
2023/03/25 09:53:25;;;;;;;1.98;0.70;;;9.80;89.10;;;;;;5095357;28;20028;-65
2023/03/25 09:55:52;;;;;;;2.75;0.82;;;9.80;89.80;;;;;;5102495;28;20016;-64
2023/03/25 09:58:26;;;;;;;4.53;1.00;;;9.50;89.90;;;;;;5086162;28;20336;-65
2023/03/25 10:01:05;;;;;;;2.97;0.80;;;9.40;90.10;;;;;;5091914;28;20055;-65
2023/03/25 10:04:00;;;;;;;6.57;1.83;;;9.10;91.10;;;;;;5079813;28;20085;-65
2023/03/25 10:06:26;;;;;;;6.10;0.90;;;9.00;92.10;;;;;;5084877;28;20033;-65
2023/03/25 10:08:59;;;;;;;2.08;0.90;;;9.30;91.50;;;;;;5081874;28;20325;-66
2023/03/25 10:11:30;;;;;;;4.00;0.90;;;9.40;91.30;;;;;;5099544;28;20425;-66
2023/03/25 10:14:09;;;;;;;2.95;1.00;;;9.20;91.50;;;;;;5092837;28;20020;-65
2023/03/25 10:16:38;;;;;;;4.80;1.08;;;9.00;91.60;;;;;;5082559;28;20035;-66
2023/03/25 10:19:23;;;;;;;5.10;1.20;;;9.20;91.90;;;;;;5087869;28;20046;-66
2023/03/25 10:22:00;;;;;;;2.85;1.08;;;9.50;90.70;;;;;;5082638;28;20430;-65
2023/03/25 10:24:50;;;;;;;2.17;0.93;;;9.20;90.40;;;;;;5078969;28;20029;-64
2023/03/25 10:27:25;;;;;;;2.55;1.20;;;9.20;91.00;;;;;;5077058;28;20691;-65
2023/03/25 10:29:56;;;;;;;4.22;1.23;;;9.40;91.00;;;;;;5089146;28;20189;-66
2023/03/25 10:32:43;;;;;;;4.88;1.33;;;9.80;89.90;;;;;;5089707;28;20425;-66
2023/03/25 10:35:15;;;;;;;4.40;1.23;;;9.50;92.00;;;;;;5093373;28;20032;-66
2023/03/25 10:37:41;;;;;;;3.50;1.45;;;10.00;91.60;;;;;;5083831;28;20158;-65
2023/03/25 10:40:38;;;;;;;2.92;1.17;;;10.10;90.50;;;;;;5086675;28;20111;-66
2023/03/25 10:43:26;;;;;;;3.10;1.17;;;9.50;91.30;;;;;;5072844;28;20040;-65
2023/03/25 10:46:03;;;;;;;4.28;1.42;;;9.00;92.50;;;;;;5091896;28;20036;-65
2023/03/25 10:48:30;;;;;;;4.25;1.17;;;9.00;93.50;;;;;;5097937;28;20024;-65
2023/03/25 10:51:09;;;;;;;4.07;1.45;;;9.40;91.40;;;;;;5083523;28;20279;-65
2023/03/25 10:53:36;;;;;;;4.22;1.10;;;9.50;91.00;;;;;;5080077;28;20060;-65
2023/03/25 10:56:06;;;;;;;3.45;1.30;;;9.40;90.90;;;;;;5085558;28;20024;-65
2023/03/25 10:58:34;;;;;;;5.88;1.30;;;9.20;91.60;;;;;;5085327;28;20083;-65
2023/03/25 11:01:10;;;;;;;5.20;1.42;;;8.80;94.90;;;;;;5076791;28;20108;-65
2023/03/25 11:03:37;;;;;;;3.42;1.10;;;8.70;94.80;;;;;;5086822;28;20444;-65
2023/03/25 11:06:03;;;;;;;7.47;1.42;;;8.90;94.30;;;;;;5081420;28;20032;-65
2023/03/25 11:08:29;;;;;;;6.32;1.50;;;9.40;92.30;;;;;;5081763;28;20321;-65
2023/03/25 11:10:56;;;;;;;4.43;1.73;;;9.80;89.40;;;;;;5098407;28;20107;-64
2023/03/25 11:13:26;;;;;;;5.18;1.92;;;10.40;87.40;;;;;;5083439;28;20031;-65
2023/03/25 11:15:58;;;;;;;4.15;1.42;;;10.70;85.50;;;;;;5077773;28;20028;-65
2023/03/25 11:18:51;;;;;;;6.30;1.73;;;10.70;84.30;;;;;;5081383;28;20119;-65
2023/03/25 11:21:17;;;;;;;5.03;1.10;;;10.90;84.90;;;;;;5081754;28;20037;-65
2023/03/25 11:23:49;;;;;;;3.95;1.40;;;11.30;82.70;;;;;;5092842;28;20035;-65
2023/03/25 11:26:29;;;;;;;5.13;1.40;;;11.50;83.00;;;;;;5089263;28;20028;-65
2023/03/25 11:29:07;;;;;;;4.13;1.15;;;11.30;81.50;;;;;;5091592;28;20119;-64
2023/03/25 11:31:36;;;;;;;8.00;1.00;;;11.20;81.40;;;;;;5095852;28;20031;-64
2023/03/25 11:34:09;;;;;;;4.32;1.30;;;11.70;79.00;;;;;;5084648;28;20128;-65
2023/03/25 11:36:36;;;;;;;4.72;1.33;;;11.70;78.70;;;;;;5093554;28;20070;-65
2023/03/25 11:39:22;;;;;;;3.75;1.30;;;11.30;79.90;;;;;;5089924;28;20028;-65
2023/03/25 11:41:49;;;;;;;6.63;1.85;;;10.90;80.80;;;;;;5078542;28;20119;-65
2023/03/25 11:44:28;;;;;;;3.90;1.30;;;10.80;80.50;;;;;;5085506;28;20035;-65
2023/03/25 11:47:06;;;;;;;4.10;1.30;;;10.90;81.10;;;;;;5089632;28;20036;-65
2023/03/25 11:49:37;;;;;;;3.53;1.00;;;10.70;81.00;;;;;;5095199;28;20440;-65
2023/03/25 11:52:05;;;;;;;5.85;1.55;;;10.30;82.50;;;;;;5090482;28;20028;-64
2023/03/25 11:54:34;;;;;;;4.07;1.27;;;10.10;83.10;;;;;;5093364;28;20024;-65
2023/03/25 11:57:04;;;;;;;4.00;1.45;;;10.10;83.90;;;;;;5090531;28;20321;-65
2023/03/25 11:59:44;;;;;;;4.82;1.73;;;10.10;83.70;;;;;;5094860;28;20020;-65
2023/03/25 12:02:22;;;;;;;5.22;1.70;;;10.40;84.10;;;;;;5094686;28;20409;-65
2023/03/25 12:05:02;;;;;;;5.45;1.70;;;10.40;82.90;;;;;;5093700;28;20039;-64
2023/03/25 12:07:28;;;;;;;5.28;1.98;;;10.10;81.90;;;;;;5093887;28;20026;-64
2023/03/25 12:09:57;;;;;;;5.70;1.40;;;9.80;84.10;;;;;;5087599;28;20087;-65
2023/03/25 12:12:38;;;;;;;6.55;2.33;;;9.80;84.10;;;;;;5094053;28;20047;-64
2023/03/25 12:15:20;;;;;;;6.43;1.40;;;9.80;83.40;;;;;;5093639;28;20013;-64
2023/03/25 12:18:00;;;;;;;4.38;1.52;;;9.80;83.60;;;;;;5091883;28;20021;-64
2023/03/25 12:20:36;;;;;;;3.58;1.20;;;9.90;83.90;;;;;;5091273;28;20421;-63
2023/03/25 12:23:32;;;;;;;4.40;1.55;;;9.90;83.10;;;;;;5093746;28;20024;-64
2023/03/25 12:26:08;;;;;;;3.70;1.50;;;9.80;83.90;;;;;;5092415;28;20026;-64
2023/03/25 12:28:36;;;;;;;4.07;1.20;;;9.90;84.60;;;;;;5084924;28;20089;-64
2023/03/25 12:31:16;;;;;;;4.15;1.00;;;9.90;82.70;;;;;;5093700;28;20032;-64
2023/03/25 12:34:07;;;;;;;3.35;1.20;;;9.70;83.00;;;;;;5101662;28;20024;-64
2023/03/25 12:37:00;;;;;;;6.95;1.98;;;9.60;84.40;;;;;;5084473;28;20449;-64
2023/03/25 12:39:39;;;;;;;5.38;1.80;;;9.30;86.80;;;;;;5076191;28;20029;-64
2023/03/25 12:42:32;;;;;;;5.13;1.30;;;9.10;89.60;;;;;;5089604;28;20140;-64
2023/03/25 12:45:19;;;;;;;3.65;1.20;;;9.00;89.30;;;;;;5087724;28;20123;-64
2023/03/25 12:48:01;;;;;;;2.50;1.15;;;8.70;91.60;;;;;;5091880;28;20028;-64
2023/03/25 12:50:57;;;;;;;3.28;1.48;;;9.00;91.00;;;;;;5078101;28;20032;-63
2023/03/25 12:53:38;;;;;;;3.17;1.23;;;9.60;90.00;;;;;;5076017;28;20036;-63
2023/03/25 12:56:09;;;;;;;4.75;1.50;;;10.00;87.60;;;;;;5078586;28;20019;-62
2023/03/25 12:58:37;;;;;;;5.80;1.42;;;10.10;86.70;;;;;;5074510;28;20311;-63
2023/03/25 13:01:33;;;;;;;4.45;1.20;;;10.30;87.20;;;;;;5076467;28;20024;-65
2023/03/25 13:04:11;;;;;;;5.05;1.40;;;10.60;86.60;;;;;;5089541;28;20048;-65
2023/03/25 13:06:46;;;;;;;6.28;3.08;;;10.70;85.90;;;;;;5090316;28;20016;-65
2023/03/25 13:09:20;;;;;;;9.18;4.18;;;10.70;85.90;;;;;;5093613;28;20086;-65
2023/03/25 13:12:03;;;;;;;25.10;12.63;;;10.70;85.70;;;;;;5090949;28;20031;-65
2023/03/25 13:14:37;;;;;;;22.33;10.45;;;10.70;85.80;;;;;;5079974;28;20032;-64
2023/03/25 13:17:10;;;;;;;10.65;4.43;;;10.60;85.70;;;;;;5091363;28;20020;-65